createdAt,value
2022-10-20T00:00:41.059Z,5.70
2022-10-20T00:04:41.171Z,5.70
2022-10-20T00:08:41.903Z,5.60
2022-10-20T00:12:44.632Z,5.60
2022-10-20T00:16:44.777Z,5.60
2022-10-20T00:20:45.130Z,5.50
2022-10-20T00:24:45.773Z,5.40
2022-10-20T00:28:49.956Z,5.30
2022-10-20T00:32:50.892Z,5.20
2022-10-20T00:36:51.529Z,5.10
2022-10-20T00:40:51.701Z,5.00
2022-10-20T00:44:58.569Z,4.90
2022-10-20T00:49:04.301Z,4.80
2022-10-20T00:53:05.504Z,4.80
2022-10-20T00:57:06.273Z,4.70
2022-10-20T01:01:09.461Z,4.90
2022-10-20T01:05:11.596Z,4.90
2022-10-20T01:09:14.230Z,4.90
2022-10-20T01:13:28.188Z,5.00
2022-10-20T01:17:46.529Z,4.90
2022-10-20T01:22:20.616Z,4.80
2022-10-20T01:26:57.536Z,4.70
2022-10-20T01:31:04.810Z,4.60
2022-10-20T01:35:12.910Z,4.50
2022-10-20T01:39:21.918Z,4.40
2022-10-20T01:43:26.512Z,4.40
2022-10-20T01:47:33.093Z,4.30
2022-10-20T01:51:34.375Z,4.30
2022-10-20T01:55:35.095Z,4.20
2022-10-20T01:59:51.716Z,4.20
2022-10-20T02:03:59.327Z,4.10
2022-10-20T02:08:15.714Z,4.10
2022-10-20T02:12:22.220Z,4.00
2022-10-20T02:16:30.469Z,3.90
2022-10-20T02:20:34.948Z,3.90
2022-10-20T02:24:40.508Z,3.80
2022-10-20T02:28:45.998Z,3.80
2022-10-20T02:32:52.517Z,3.70
2022-10-20T02:37:00.725Z,3.70
2022-10-20T02:41:01.421Z,3.60
2022-10-20T02:45:01.470Z,3.50
2022-10-20T02:49:01.724Z,3.50
2022-10-20T02:53:04.556Z,3.40
2022-10-20T02:57:04.643Z,3.40
2022-10-20T03:01:04.925Z,3.30
2022-10-20T03:05:05.129Z,3.30
2022-10-20T03:09:08.328Z,3.30
2022-10-20T03:13:09.087Z,3.30
2022-10-20T03:17:09.132Z,3.30
2022-10-20T03:21:09.526Z,3.30
2022-10-20T03:25:12.569Z,3.30
2022-10-20T03:29:13.975Z,3.30
2022-10-20T03:33:14.036Z,3.30
2022-10-20T03:37:14.246Z,3.20
2022-10-20T03:41:17.074Z,3.20
2022-10-20T03:45:18.671Z,3.20
2022-10-20T03:49:19.077Z,3.20
2022-10-20T03:53:19.169Z,3.10
2022-10-20T03:57:22.579Z,3.00
2022-10-20T04:01:29.987Z,3.10
2022-10-20T04:05:30.162Z,3.00
2022-10-20T04:09:30.217Z,2.90
2022-10-20T04:13:32.950Z,2.90
2022-10-20T04:17:33.094Z,2.80
2022-10-20T04:21:33.333Z,2.80
2022-10-20T04:25:33.462Z,2.80
2022-10-20T04:29:36.269Z,2.80
2022-10-20T04:33:37.341Z,2.80
2022-10-20T04:37:37.759Z,2.80
2022-10-20T04:41:38.464Z,2.80
2022-10-20T04:45:41.251Z,2.80
2022-10-20T04:49:42.888Z,2.80
2022-10-20T04:53:43.568Z,2.80
2022-10-20T04:57:43.652Z,2.70
2022-10-20T05:01:46.399Z,2.70
2022-10-20T05:05:46.537Z,2.70
2022-10-20T05:09:46.596Z,2.70
2022-10-20T05:13:47.065Z,2.70
2022-10-20T05:17:49.967Z,2.60
2022-10-20T05:21:50.281Z,2.60
2022-10-20T05:25:50.569Z,2.70
2022-10-20T05:29:50.636Z,2.80
2022-10-20T05:33:56.562Z,2.90
2022-10-20T05:37:56.669Z,2.90
2022-10-20T05:41:56.701Z,2.90
2022-10-20T05:45:57.616Z,2.90
2022-10-20T05:50:00.528Z,3.00
2022-10-20T05:54:02.284Z,3.00
2022-10-20T05:58:02.400Z,3.00
2022-10-20T06:02:02.507Z,2.90
2022-10-20T06:06:06.454Z,2.90
2022-10-20T06:10:08.121Z,2.90
2022-10-20T06:14:08.274Z,2.80
2022-10-20T06:18:08.760Z,2.90
2022-10-20T06:22:11.574Z,2.90
2022-10-20T06:26:17.483Z,3.00
2022-10-20T06:30:17.746Z,3.10
2022-10-20T06:34:27.947Z,3.20
2022-10-20T06:38:40.332Z,3.30
2022-10-20T06:47:16.312Z,3.70
2022-10-20T06:51:25.110Z,4.00
2022-10-20T06:55:40.449Z,4.30
2022-10-20T06:59:50.785Z,4.60
2022-10-20T07:03:53.263Z,4.80
2022-10-20T07:07:56.095Z,5.10
2022-10-20T07:11:58.802Z,5.30
2022-10-20T07:16:00.044Z,5.40
2022-10-20T07:20:00.270Z,5.60
2022-10-20T07:24:03.481Z,5.80
2022-10-20T07:28:06.404Z,6.10
2022-10-20T07:32:07.067Z,6.50
2022-10-20T07:36:16.237Z,6.90
2022-10-20T07:40:16.542Z,7.30
2022-10-20T07:44:20.187Z,7.50
2022-10-20T07:48:20.278Z,7.70
2022-10-20T07:52:20.522Z,7.70
2022-10-20T07:56:20.944Z,7.90
2022-10-20T08:00:24.059Z,7.90
2022-10-20T08:04:24.176Z,8.00
2022-10-20T08:08:24.344Z,8.00
2022-10-20T08:12:24.410Z,8.30
2022-10-20T08:16:30.030Z,8.50
2022-10-20T08:20:33.072Z,8.80
2022-10-20T08:24:33.994Z,9.00
2022-10-20T08:28:34.093Z,9.30
2022-10-20T08:32:37.244Z,9.50
2022-10-20T08:36:37.578Z,9.80
2022-10-20T08:40:43.937Z,10.10
2022-10-20T08:44:48.760Z,10.40
2022-10-20T08:48:52.957Z,10.50
2022-10-20T08:52:59.040Z,10.50
2022-10-20T08:56:59.315Z,10.30
2022-10-20T09:01:02.663Z,10.50
2022-10-20T09:05:09.356Z,10.90
2022-10-20T09:09:10.214Z,11.30
2022-10-20T09:13:23.818Z,11.60
2022-10-20T09:17:24.001Z,11.70
2022-10-20T09:21:27.654Z,11.90
2022-10-20T09:25:29.906Z,12.00
2022-10-20T09:29:40.901Z,12.20
2022-10-20T09:33:42.193Z,12.30
2022-10-20T09:37:47.221Z,12.40
2022-10-20T09:41:47.543Z,12.50
2022-10-20T09:45:57.298Z,12.50
2022-10-20T09:50:02.743Z,12.50
2022-10-20T09:54:09.450Z,12.90
2022-10-20T09:58:17.830Z,13.40
2022-10-20T10:02:35.743Z,13.80
2022-10-20T10:06:46.305Z,14.60
2022-10-20T10:11:05.998Z,14.90
2022-10-20T10:15:30.574Z,15.20
2022-10-20T10:25:21.570Z,15.40
2022-10-20T10:29:52.522Z,15.90
2022-10-20T10:35:17.433Z,16.00
2022-10-20T10:39:43.837Z,15.40
2022-10-20T10:44:16.781Z,15.40
2022-10-20T10:49:43.271Z,15.70
2022-10-20T10:54:19.940Z,15.90
2022-10-20T11:04:25.232Z,16.80
2022-10-20T11:08:58.956Z,16.90
2022-10-20T11:13:23.062Z,17.10
2022-10-20T11:17:45.515Z,17.20
2022-10-20T11:22:07.631Z,16.90
2022-10-20T11:26:28.238Z,17.00
2022-10-20T11:30:30.243Z,17.60
2022-10-20T11:34:39.153Z,17.90
2022-10-20T11:38:49.798Z,18.10
2022-10-20T11:43:01.786Z,18.50
2022-10-20T11:47:08.955Z,18.00
2022-10-20T11:51:38.872Z,18.40
2022-10-20T11:55:58.464Z,19.10
2022-10-20T12:00:29.613Z,18.80
2022-10-20T12:05:23.034Z,17.90
2022-10-20T12:09:55.424Z,18.20
2022-10-20T12:14:10.677Z,18.10
2022-10-20T12:18:27.153Z,17.70
2022-10-20T12:22:45.383Z,17.60
2022-10-20T12:27:21.278Z,17.40
2022-10-20T12:31:25.710Z,16.80
2022-10-20T12:36:17.742Z,16.90
2022-10-20T12:40:31.147Z,17.00
2022-10-20T12:44:35.104Z,17.80
2022-10-20T12:48:46.131Z,18.90
2022-10-20T12:52:47.023Z,19.10
2022-10-20T12:56:48.053Z,18.70
2022-10-20T13:01:11.032Z,18.50
2022-10-20T13:05:47.592Z,18.60
2022-10-20T13:10:01.711Z,18.30
2022-10-20T13:14:24.917Z,18.00
2022-10-20T13:18:31.437Z,17.50
2022-10-20T13:22:49.314Z,17.30
2022-10-20T13:26:56.318Z,17.40
2022-10-20T13:31:20.708Z,17.40
2022-10-20T13:35:29.757Z,17.70
2022-10-20T13:39:49.666Z,17.90
2022-10-20T13:44:04.851Z,18.10
2022-10-20T13:48:29.394Z,18.60
2022-10-20T13:52:35.075Z,18.50
2022-10-20T13:56:45.125Z,18.80
2022-10-20T14:01:02.242Z,19.00
2022-10-20T14:05:09.083Z,18.90
2022-10-20T14:09:18.424Z,18.80
2022-10-20T14:13:24.665Z,17.80
2022-10-20T14:17:27.248Z,17.30
2022-10-20T14:21:28.807Z,17.00
2022-10-20T14:25:31.560Z,16.80
2022-10-20T14:29:39.404Z,16.40
2022-10-20T14:33:46.245Z,16.10
2022-10-20T14:37:55.426Z,15.90
2022-10-20T14:41:59.965Z,15.70
2022-10-20T14:46:05.638Z,15.60
2022-10-20T14:50:08.142Z,15.40
2022-10-20T14:54:30.810Z,15.30
2022-10-20T14:58:41.617Z,15.30
2022-10-20T15:02:45.928Z,15.20
2022-10-20T15:06:46.986Z,15.20
2022-10-20T15:10:47.792Z,15.20
2022-10-20T15:14:51.781Z,15.00
2022-10-20T15:19:16.041Z,14.80
2022-10-20T15:23:18.781Z,14.40
2022-10-20T15:27:20.921Z,14.30
2022-10-20T15:31:25.706Z,14.30
2022-10-20T15:35:30.960Z,14.10
2022-10-20T15:39:31.038Z,13.90
2022-10-20T15:43:31.106Z,13.80
2022-10-20T15:47:31.285Z,13.70
2022-10-20T15:51:39.916Z,13.50
2022-10-20T15:55:45.249Z,13.40
2022-10-20T15:59:45.324Z,13.30
2022-10-20T16:03:45.987Z,13.20
2022-10-20T16:07:48.840Z,13.10
2022-10-20T16:11:49.118Z,13.00
2022-10-20T16:15:49.226Z,12.80
2022-10-20T16:19:49.404Z,12.80
2022-10-20T16:23:52.046Z,12.70
2022-10-20T16:27:52.158Z,12.60
2022-10-20T16:31:52.271Z,12.50
2022-10-20T16:35:52.338Z,12.60
2022-10-20T16:39:55.313Z,12.60
2022-10-20T16:43:58.855Z,12.60
2022-10-20T16:48:00.991Z,12.60
2022-10-20T16:52:01.790Z,12.60
2022-10-20T16:56:05.156Z,12.60
2022-10-20T17:00:05.692Z,12.50
2022-10-20T17:04:06.625Z,12.50
2022-10-20T17:08:07.337Z,12.50
2022-10-20T17:12:10.189Z,12.40
2022-10-20T17:16:13.559Z,12.40
2022-10-20T17:20:14.666Z,12.40
2022-10-20T17:24:16.062Z,12.40
2022-10-20T17:28:19.332Z,12.30
2022-10-20T17:32:19.496Z,12.20
2022-10-20T17:36:25.883Z,12.20
2022-10-20T17:40:26.322Z,12.10
2022-10-20T17:44:29.329Z,12.10
2022-10-20T17:48:29.814Z,12.00
2022-10-20T17:52:32.250Z,11.90
2022-10-20T17:56:40.128Z,11.90
2022-10-20T18:00:56.104Z,11.90
2022-10-20T18:04:57.562Z,11.80
2022-10-20T18:08:59.504Z,11.70
2022-10-20T18:13:00.007Z,11.70
2022-10-20T18:17:02.839Z,11.50
2022-10-20T18:21:03.551Z,11.50
2022-10-20T18:25:05.222Z,11.30
2022-10-20T18:29:07.596Z,11.20
2022-10-20T18:33:10.894Z,11.10
2022-10-20T18:37:15.444Z,11.00
2022-10-20T18:41:18.551Z,10.90
2022-10-20T18:45:21.363Z,10.90
2022-10-20T18:49:27.214Z,10.80
2022-10-20T18:53:28.483Z,10.80
2022-10-20T18:57:28.724Z,10.80
2022-10-20T19:01:31.617Z,10.80
2022-10-20T19:05:36.898Z,10.80
2022-10-20T19:09:37.429Z,10.70
2022-10-20T19:13:37.681Z,10.70
2022-10-20T19:17:37.927Z,10.70
2022-10-20T19:21:40.793Z,10.70
2022-10-20T19:25:41.617Z,10.70
2022-10-20T19:29:41.906Z,10.70
2022-10-20T19:33:42.249Z,10.70
2022-10-20T19:37:44.945Z,10.70
2022-10-20T19:41:45.488Z,10.70
2022-10-20T19:45:49.076Z,10.70
2022-10-20T19:49:50.028Z,10.70
2022-10-20T19:53:53.308Z,10.70
2022-10-20T19:57:53.629Z,10.70
2022-10-20T20:01:53.758Z,10.70
2022-10-20T20:06:01.118Z,10.70
2022-10-20T20:10:03.878Z,10.80
2022-10-20T20:14:07.201Z,10.80
2022-10-20T20:18:11.044Z,10.80
2022-10-20T20:22:13.877Z,10.80
2022-10-20T20:26:16.844Z,10.80
2022-10-20T20:30:17.151Z,10.80
2022-10-20T20:34:18.164Z,10.80
2022-10-20T20:38:18.210Z,10.70
2022-10-20T20:42:21.050Z,10.70
2022-10-20T20:46:23.984Z,10.70
2022-10-20T20:50:24.123Z,10.70
2022-10-20T20:54:26.229Z,10.70
2022-10-20T20:58:32.299Z,10.70
2022-10-20T21:02:32.368Z,10.70
2022-10-20T21:06:56.646Z,10.70
2022-10-20T21:10:54.290Z,10.70
2022-10-20T21:14:57.203Z,10.70
2022-10-20T21:19:00.280Z,10.70
2022-10-20T21:23:00.388Z,10.60
2022-10-20T21:27:00.559Z,10.70
2022-10-20T21:31:03.702Z,10.70
2022-10-20T21:35:03.801Z,10.70
2022-10-20T21:39:05.126Z,10.70
2022-10-20T21:43:08.905Z,10.70
2022-10-20T21:47:11.691Z,10.70
2022-10-20T21:51:15.198Z,10.70
2022-10-20T21:55:15.283Z,10.70
2022-10-20T21:59:21.590Z,10.70
2022-10-20T22:03:25.567Z,10.70
2022-10-20T22:07:26.171Z,10.60
2022-10-20T22:11:30.021Z,10.60
2022-10-20T22:15:30.161Z,10.70
2022-10-20T22:19:32.911Z,10.70
2022-10-20T22:23:33.154Z,10.60
2022-10-20T22:27:42.433Z,10.70
2022-10-20T22:31:46.076Z,10.60
2022-10-20T22:35:49.053Z,10.60
2022-10-20T22:39:49.101Z,10.60
2022-10-20T22:43:49.680Z,10.50
2022-10-20T22:47:49.823Z,10.40
2022-10-20T22:51:52.515Z,10.40
2022-10-20T22:55:53.362Z,10.30
2022-10-20T22:59:55.148Z,10.30
2022-10-20T23:03:55.597Z,10.30
2022-10-20T23:07:58.346Z,10.30
2022-10-20T23:11:58.756Z,10.30
2022-10-20T23:15:58.831Z,10.30
2022-10-20T23:19:58.969Z,10.40
2022-10-20T23:24:01.646Z,10.40
2022-10-20T23:28:01.699Z,10.40
2022-10-20T23:32:01.902Z,10.30
2022-10-20T23:36:02.062Z,10.30
2022-10-20T23:40:07.767Z,10.40
2022-10-20T23:44:08.227Z,10.40
2022-10-20T23:48:08.578Z,10.40
2022-10-20T23:52:08.923Z,10.40
2022-10-20T23:56:11.831Z,10.30
